Flugplatz Rostock-Laage Airport

Bericht für ETNL

vom 14.11. um 11:20 UTC

Wind 4 kt aus 120°

Sichtweite 10 km oder mehr

gering bewölkt in 1500 ft

Temperatur 8.0°C

Taupunkt 4.0°C

Luftfeuchtigkeit 76%

Luftdruck 1009 hPa

ETNL 141120Z 12004KT 9999 FEW015 08/04 Q1009 BLU+BLU+

Prognose für ETNL

vom 14.11. um 00:00 UTC

Zwischen 00:00 UTC und 00:00 UTC

Wind 5 kt aus 130°

Sichtweite 10 km oder mehr

keine signifikanten Wettererscheinungen

aufgebrochene Bewölkung in 22000 ft


Zwischen 00:00 und 00:00 UTC übergehend zu

Wind 10 kt aus 90°

Sichtweite 5000 m

feuchter Dunst

aufgelockert bewölkt in 15000 ft

aufgebrochene Bewölkung in 20000 ft


Zwischen 00:00 UTC und 00:00 UTC mit einer Wahrscheinlichkeit von 30%

Wind 5 kt aus 100°

Sichtweite 500 m

Nebel

TAF ETNL 141120Z 1412/1421 13005KT 9999 NSW BKN220 BECMG 1416/1418 09010KT 5000 BR SCT150 BKN200 PROB30 1420/1421 10005KT 0500 FG VV001 BY ETGL
Impressum